KECS/ECS METAR and TAF weather

Enter ICAO airport designator
Station Type Date Time Source
KECS METAR 2021/10/24 20:55 UTC NOAA

KECS 242055Z AUTO 00000KT 10SM CLR 13/M02 A2987 RMK AO2


Station Type Date Time Source
KECS Decoded METAR 2021/10/24 20:55 UTC NOAA

Station name not available
Oct 24, 2021 - 04:55 PM EDT / 2021.10.24 2055 UTC
Wind: Calm:0
Visibility: 10 mile(s):0
Sky conditions: clear
Temperature: 55 F (13 C)
Dew Point: 28 F (-2 C)
Relative Humidity: 35%
Pressure (altimeter): 29.87 in. Hg (1011 hPa)
ob: KECS 242055Z AUTO 00000KT 10SM CLR 13/M02 A2987 RMK AO2
cycle: 21

Station Type Date Time Source
KECS TAF UTC NOAA

Error!

Example: see airport list